createdAt,value
2024-02-10T00:01:29.126Z,15.32
2024-02-10T00:03:57.796Z,17.73
2024-02-10T00:06:25.026Z,11.15
2024-02-10T00:08:52.262Z,18.27
2024-02-10T00:11:19.164Z,14.05
2024-02-10T00:13:46.195Z,11.90
2024-02-10T00:16:13.349Z,14.82
2024-02-10T00:18:42.208Z,17.08
2024-02-10T00:21:09.371Z,13.82
2024-02-10T00:23:36.392Z,11.18
2024-02-10T00:26:05.681Z,14.18
2024-02-10T00:28:36.546Z,15.43
2024-02-10T00:31:03.583Z,15.07
2024-02-10T00:33:32.094Z,15.38
2024-02-10T00:35:59.160Z,13.80
2024-02-10T00:38:28.363Z,12.77
2024-02-10T00:40:55.524Z,13.95
2024-02-10T00:43:22.796Z,13.65
2024-02-10T00:45:49.646Z,19.85
2024-02-10T00:48:17.070Z,14.25
2024-02-10T00:50:46.538Z,15.63
2024-02-10T00:53:13.439Z,13.85
2024-02-10T00:55:40.325Z,13.50
2024-02-10T00:58:07.675Z,17.27
2024-02-10T01:00:35.522Z,17.45
2024-02-10T01:03:04.013Z,17.55
2024-02-10T01:05:31.680Z,14.20
2024-02-10T01:08:01.326Z,15.50
2024-02-10T01:10:32.192Z,20.65
2024-02-10T01:13:04.691Z,18.02
2024-02-10T01:15:34.052Z,16.08
2024-02-10T01:18:05.431Z,18.38
2024-02-10T01:20:32.497Z,24.92
2024-02-10T01:23:01.097Z,16.45
2024-02-10T01:25:31.592Z,18.52
2024-02-10T01:27:59.772Z,19.88
2024-02-10T01:30:27.922Z,17.02
2024-02-10T01:32:59.640Z,17.35
2024-02-10T01:35:27.031Z,21.30
2024-02-10T01:37:54.040Z,21.92
2024-02-10T01:40:21.289Z,20.20
2024-02-10T01:42:48.342Z,21.35
2024-02-10T01:45:15.802Z,21.35
2024-02-10T01:47:47.280Z,19.45
2024-02-10T01:50:15.231Z,21.05
2024-02-10T01:52:42.688Z,17.85
2024-02-10T01:55:11.589Z,25.73
2024-02-10T01:57:39.624Z,19.23
2024-02-10T02:00:08.277Z,20.25
2024-02-10T02:02:35.403Z,19.42
2024-02-10T02:05:05.724Z,22.90
2024-02-10T02:07:33.313Z,23.15
2024-02-10T02:10:03.704Z,22.08
2024-02-10T02:12:32.766Z,22.08
2024-02-10T02:15:00.382Z,23.50
2024-02-10T02:17:27.425Z,24.52
2024-02-10T02:19:54.454Z,19.00
2024-02-10T02:22:21.572Z,21.20
2024-02-10T02:24:49.068Z,21.27
2024-02-10T02:27:16.435Z,19.33
2024-02-10T02:29:43.763Z,25.10
2024-02-10T02:32:12.112Z,23.55
2024-02-10T02:34:39.842Z,23.27
2024-02-10T02:37:08.528Z,22.58
2024-02-10T02:39:37.406Z,24.52
2024-02-10T02:42:06.911Z,21.75
2024-02-10T02:44:34.317Z,24.98
2024-02-10T02:47:06.639Z,22.13
2024-02-10T02:49:34.622Z,24.90
2024-02-10T02:52:01.916Z,24.65
2024-02-10T02:54:32.801Z,21.42
2024-02-10T02:57:01.762Z,28.58
2024-02-10T02:59:28.885Z,23.60
2024-02-10T03:01:56.320Z,27.30
2024-02-10T03:04:24.328Z,27.42
2024-02-10T03:06:52.270Z,21.45
2024-02-10T03:09:19.670Z,30.55
2024-02-10T03:11:46.614Z,25.02
2024-02-10T03:14:13.514Z,23.80
2024-02-10T03:16:41.140Z,24.02
2024-02-10T03:19:08.862Z,24.65
2024-02-10T03:21:38.422Z,26.35
2024-02-10T03:24:06.207Z,27.98
2024-02-10T03:26:38.074Z,23.67
2024-02-10T03:29:06.625Z,23.85
2024-02-10T03:31:33.878Z,28.02
2024-02-10T03:34:03.291Z,23.92
2024-02-10T03:36:32.475Z,26.77
2024-02-10T03:39:08.486Z,25.33
2024-02-10T03:41:35.601Z,31.05
2024-02-10T03:44:03.003Z,25.75
2024-02-10T03:46:31.993Z,28.40
2024-02-10T03:49:02.211Z,24.30
2024-02-10T03:51:30.452Z,26.55
2024-02-10T03:53:57.292Z,31.05
2024-02-10T03:56:25.225Z,33.35
2024-02-10T03:58:52.340Z,33.92
2024-02-10T04:01:19.327Z,22.40
2024-02-10T04:03:47.103Z,29.33
2024-02-10T04:06:17.330Z,29.48
2024-02-10T04:08:46.837Z,31.00
2024-02-10T04:11:20.760Z,26.65
2024-02-10T04:13:48.117Z,29.25
2024-02-10T04:16:15.073Z,30.40
2024-02-10T04:18:43.253Z,30.33
2024-02-10T04:21:10.858Z,27.95
2024-02-10T04:23:41.490Z,30.35
2024-02-10T04:26:08.879Z,30.83
2024-02-10T04:28:36.327Z,26.60
2024-02-10T04:31:04.704Z,32.40
2024-02-10T04:33:32.121Z,24.55
2024-02-10T04:35:59.167Z,30.67
2024-02-10T04:38:26.090Z,26.90
2024-02-10T04:40:53.187Z,27.10
2024-02-10T04:43:21.056Z,27.10
2024-02-10T04:45:50.286Z,26.40
2024-02-10T04:48:19.813Z,31.05
2024-02-10T04:50:46.940Z,31.25
2024-02-10T04:53:16.622Z,24.83
2024-02-10T04:55:43.686Z,31.13
2024-02-10T04:58:14.029Z,28.63
2024-02-10T05:00:41.536Z,36.55
2024-02-10T05:03:08.488Z,24.45
2024-02-10T05:05:35.547Z,31.02
2024-02-10T05:08:02.573Z,25.80
2024-02-10T05:10:29.539Z,34.20
2024-02-10T05:12:57.664Z,27.42
2024-02-10T05:15:26.181Z,28.27
2024-02-10T05:17:54.272Z,29.20
2024-02-10T05:20:26.575Z,32.88
2024-02-10T05:22:55.488Z,29.70
2024-02-10T05:25:24.387Z,31.73
2024-02-10T05:27:52.150Z,32.35
2024-02-10T05:30:25.840Z,35.70
2024-02-10T05:32:54.133Z,34.25
2024-02-10T05:35:22.129Z,26.73
2024-02-10T05:37:57.926Z,28.45
2024-02-10T05:40:26.839Z,32.33
2024-02-10T05:42:58.098Z,33.20
2024-02-10T05:45:24.945Z,32.08
2024-02-10T05:47:53.051Z,37.47
2024-02-10T05:50:25.165Z,38.30
2024-02-10T05:52:59.716Z,27.13
2024-02-10T05:55:28.601Z,30.05
2024-02-10T05:58:07.420Z,31.30
2024-02-10T06:00:34.717Z,30.60
2024-02-10T06:03:04.262Z,38.03
2024-02-10T06:05:31.784Z,34.08
2024-02-10T06:07:59.227Z,30.90
2024-02-10T06:10:26.450Z,31.48
2024-02-10T06:12:54.651Z,33.72
2024-02-10T06:15:22.107Z,34.75
2024-02-10T06:17:57.526Z,28.60
2024-02-10T06:20:25.578Z,31.92
2024-02-10T06:22:54.509Z,29.67
2024-02-10T06:25:29.681Z,35.40
2024-02-10T06:27:59.041Z,38.45
2024-02-10T06:30:31.881Z,26.63
2024-02-10T06:32:59.619Z,25.63
2024-02-10T06:35:27.791Z,28.40
2024-02-10T06:37:56.401Z,33.92
2024-02-10T06:40:24.514Z,34.80
2024-02-10T06:42:54.422Z,30.33
2024-02-10T06:45:29.986Z,31.48
2024-02-10T06:47:58.512Z,25.05
2024-02-10T06:50:26.502Z,30.52
2024-02-10T06:52:54.945Z,31.67
2024-02-10T06:55:24.472Z,31.55
2024-02-10T06:57:54.086Z,33.75
2024-02-10T07:00:21.421Z,36.15
2024-02-10T07:02:48.961Z,42.28
2024-02-10T07:05:20.887Z,38.75
2024-02-10T07:07:49.921Z,35.83
2024-02-10T07:10:21.551Z,39.97
2024-02-10T07:12:58.237Z,40.85
2024-02-10T07:15:31.641Z,40.55
2024-02-10T07:17:59.502Z,36.65
2024-02-10T07:20:27.222Z,33.30
2024-02-10T07:22:58.639Z,38.60
2024-02-10T07:25:30.417Z,41.67
2024-02-10T07:28:02.773Z,38.05
2024-02-10T07:30:32.201Z,35.88
2024-02-10T07:33:04.885Z,39.08
2024-02-10T07:35:33.445Z,33.95
2024-02-10T07:38:00.535Z,36.78
2024-02-10T07:40:27.498Z,36.50
2024-02-10T07:42:54.453Z,36.92
2024-02-10T07:45:23.947Z,38.60
2024-02-10T07:47:51.709Z,41.38
2024-02-10T07:50:18.748Z,34.17
2024-02-10T07:52:49.140Z,34.83
2024-02-10T07:55:17.876Z,42.28
2024-02-10T07:57:44.917Z,33.45
2024-02-10T08:00:12.193Z,39.13
2024-02-10T08:02:39.256Z,36.58
2024-02-10T08:05:06.761Z,39.00
2024-02-10T08:07:34.686Z,40.53
2024-02-10T08:10:02.550Z,37.13
2024-02-10T08:12:31.394Z,45.17
2024-02-10T08:14:59.199Z,37.75
2024-02-10T08:17:33.139Z,41.92
2024-02-10T08:20:01.270Z,41.22
2024-02-10T08:22:32.331Z,36.00
2024-02-10T08:25:00.627Z,38.83
2024-02-10T08:27:30.497Z,41.42
2024-02-10T08:29:59.774Z,47.58
2024-02-10T08:32:29.526Z,41.22
2024-02-10T08:34:56.947Z,36.85
2024-02-10T08:37:23.977Z,48.55
2024-02-10T08:39:50.824Z,41.63
2024-02-10T08:42:18.101Z,38.75
2024-02-10T08:44:48.179Z,45.58
2024-02-10T08:47:16.617Z,39.05
2024-02-10T08:49:43.921Z,42.75
2024-02-10T08:52:22.001Z,45.70
2024-02-10T08:54:49.980Z,50.22
2024-02-10T08:57:18.176Z,55.28
2024-02-10T08:59:50.367Z,50.50
2024-02-10T09:02:23.798Z,50.45
2024-02-10T09:04:52.620Z,52.63
2024-02-10T09:07:20.550Z,45.00
2024-02-10T09:09:47.677Z,52.00
2024-02-10T09:12:14.644Z,58.47
2024-02-10T09:14:42.066Z,50.63
2024-02-10T09:17:09.075Z,46.88
2024-02-10T09:19:36.820Z,55.60
2024-02-10T09:22:07.391Z,52.53
2024-02-10T09:24:36.260Z,52.50
2024-02-10T09:27:05.588Z,62.47
2024-02-10T09:29:32.652Z,53.25
2024-02-10T09:32:01.975Z,55.97
2024-02-10T09:34:30.221Z,62.38
2024-02-10T09:37:00.474Z,62.50
2024-02-10T09:39:27.743Z,60.33
2024-02-10T09:42:02.887Z,59.30
2024-02-10T09:44:31.266Z,51.95
2024-02-10T09:47:01.488Z,57.20
2024-02-10T09:49:30.037Z,67.10
2024-02-10T09:51:57.613Z,65.13
2024-02-10T09:54:24.607Z,63.33
2024-02-10T09:56:52.836Z,61.42
2024-02-10T09:59:29.972Z,52.45
2024-02-10T10:02:00.206Z,56.05
2024-02-10T10:04:28.617Z,63.22
2024-02-10T10:06:57.554Z,61.90
2024-02-10T10:09:24.646Z,63.20
2024-02-10T10:11:52.643Z,67.85
2024-02-10T10:14:21.263Z,66.82
2024-02-10T10:17:03.895Z,66.80
2024-02-10T10:19:31.514Z,66.25
2024-02-10T10:21:59.317Z,81.95
2024-02-10T10:24:28.473Z,69.63
2024-02-10T10:26:56.700Z,63.70
2024-02-10T10:29:24.192Z,60.95
2024-02-10T10:31:54.998Z,68.75
2024-02-10T10:34:24.078Z,68.00
2024-02-10T10:36:54.214Z,71.75
2024-02-10T10:39:23.628Z,62.28
2024-02-10T10:41:53.199Z,67.45
2024-02-10T10:44:22.738Z,56.85
2024-02-10T10:46:53.283Z,67.93
2024-02-10T10:49:20.550Z,67.22
2024-02-10T10:52:03.604Z,72.05
2024-02-10T10:54:35.981Z,71.43
2024-02-10T10:57:09.347Z,75.93
2024-02-10T10:59:38.523Z,74.78
2024-02-10T11:02:09.439Z,62.92
2024-02-10T11:04:36.828Z,74.53
2024-02-10T11:07:12.998Z,67.97
2024-02-10T11:09:49.779Z,68.60
2024-02-10T11:12:16.967Z,74.55
2024-02-10T11:14:54.900Z,63.40
2024-02-10T11:17:22.186Z,64.00
2024-02-10T11:20:02.802Z,58.28
2024-02-10T11:22:41.613Z,73.00
2024-02-10T11:25:16.683Z,67.63
2024-02-10T11:27:47.575Z,54.50
2024-02-10T11:30:16.673Z,63.05
2024-02-10T11:32:50.330Z,72.55
2024-02-10T11:35:17.661Z,55.88
2024-02-10T11:37:45.094Z,68.85
2024-02-10T11:40:16.989Z,65.72
2024-02-10T11:42:44.768Z,59.05
2024-02-10T11:45:12.121Z,64.13
2024-02-10T11:47:39.156Z,67.57
2024-02-10T11:50:08.007Z,65.97
2024-02-10T11:52:37.818Z,60.25
2024-02-10T11:55:05.611Z,66.50
2024-02-10T11:57:32.685Z,63.10
2024-02-10T11:59:59.985Z,64.30
2024-02-10T12:02:27.919Z,67.72
2024-02-10T12:04:55.263Z,61.90
2024-02-10T12:07:22.470Z,64.25
2024-02-10T12:09:49.468Z,63.65
2024-02-10T12:12:17.354Z,58.50
2024-02-10T12:14:45.628Z,56.45
2024-02-10T12:17:17.505Z,59.33
2024-02-10T12:19:44.656Z,62.42
2024-02-10T12:22:12.033Z,60.58
2024-02-10T12:24:44.732Z,62.53
2024-02-10T12:27:13.847Z,69.18
2024-02-10T12:29:40.965Z,66.00
2024-02-10T12:32:10.589Z,61.67
2024-02-10T12:34:37.716Z,58.53
2024-02-10T12:37:05.086Z,58.95
2024-02-10T12:39:33.219Z,60.83
2024-02-10T12:42:02.670Z,63.95
2024-02-10T12:44:29.582Z,63.78
2024-02-10T12:46:57.914Z,61.53
2024-02-10T12:49:27.149Z,60.00
2024-02-10T12:51:56.547Z,61.75
2024-02-10T12:54:29.008Z,56.35
2024-02-10T12:56:57.356Z,63.13
2024-02-10T12:59:25.235Z,63.72
2024-02-10T13:01:52.333Z,60.35
2024-02-10T13:04:22.307Z,56.53
2024-02-10T13:06:50.464Z,63.38
2024-02-10T13:09:17.423Z,66.55
2024-02-10T13:11:44.361Z,58.10
2024-02-10T13:14:12.857Z,58.30
2024-02-10T13:16:41.629Z,69.50
2024-02-10T13:19:15.331Z,64.15
2024-02-10T13:21:45.116Z,65.07
2024-02-10T13:24:12.057Z,67.30
2024-02-10T13:26:39.093Z,57.57
2024-02-10T13:29:06.140Z,59.22
2024-02-10T13:31:36.245Z,68.82
2024-02-10T13:34:11.682Z,67.00
2024-02-10T13:36:47.402Z,62.05
2024-02-10T13:39:33.356Z,60.70
2024-02-10T13:42:18.800Z,69.00
2024-02-10T13:45:04.132Z,60.03
2024-02-10T13:47:50.116Z,67.82
2024-02-10T13:50:35.798Z,65.87
2024-02-10T13:53:21.226Z,80.13
2024-02-10T13:56:06.691Z,59.17
2024-02-10T13:58:33.530Z,57.33
2024-02-10T14:01:00.541Z,59.22
2024-02-10T14:03:33.592Z,65.85
2024-02-10T14:06:09.727Z,64.47
2024-02-10T14:08:43.574Z,70.25
2024-02-10T14:11:21.452Z,66.22
2024-02-10T14:13:53.119Z,62.05
2024-02-10T14:16:29.363Z,68.03
2024-02-10T14:19:05.785Z,53.07
2024-02-10T14:21:35.832Z,56.30
2024-02-10T14:24:04.509Z,51.92
2024-02-10T14:26:43.653Z,63.45
2024-02-10T14:29:21.436Z,60.80
2024-02-10T14:31:49.583Z,67.00
2024-02-10T14:34:37.893Z,59.63
2024-02-10T14:37:25.658Z,59.00
2024-02-10T14:40:01.184Z,59.70
2024-02-10T14:42:28.615Z,54.30
2024-02-10T14:44:55.744Z,59.83
2024-02-10T14:47:22.785Z,56.73
2024-02-10T14:49:49.806Z,56.80
2024-02-10T14:52:16.751Z,48.17
2024-02-10T14:54:44.031Z,53.70
2024-02-10T14:57:10.902Z,52.58
2024-02-10T14:59:37.805Z,51.67
2024-02-10T15:02:04.982Z,53.13
2024-02-10T15:04:32.156Z,45.83
2024-02-10T15:07:02.389Z,63.17
2024-02-10T15:09:29.383Z,49.27
2024-02-10T15:11:56.260Z,56.30
2024-02-10T15:14:23.109Z,49.27
2024-02-10T15:16:50.306Z,53.13
2024-02-10T15:19:18.453Z,55.70
2024-02-10T15:21:45.356Z,55.97
2024-02-10T15:24:13.519Z,52.97
2024-02-10T15:26:42.652Z,45.07
2024-02-10T15:29:09.661Z,52.43
2024-02-10T15:31:36.617Z,56.03
2024-02-10T15:34:05.188Z,52.57
2024-02-10T15:36:37.246Z,49.25
2024-02-10T15:39:06.941Z,47.50
2024-02-10T15:41:35.244Z,45.38
2024-02-10T15:44:09.304Z,50.10
2024-02-10T15:46:38.086Z,45.57
2024-02-10T15:49:09.895Z,49.78
2024-02-10T15:51:39.328Z,50.13
2024-02-10T15:54:08.912Z,48.03
2024-02-10T15:56:43.315Z,55.90
2024-02-10T15:59:10.375Z,47.72
2024-02-10T16:01:37.401Z,48.25
2024-02-10T16:04:09.692Z,51.90
2024-02-10T16:06:40.298Z,53.35
2024-02-10T16:09:09.695Z,54.35
2024-02-10T16:11:36.791Z,53.10
2024-02-10T16:14:03.799Z,51.13
2024-02-10T16:16:32.125Z,56.28
2024-02-10T16:19:00.773Z,67.00
2024-02-10T16:21:29.276Z,52.60
2024-02-10T16:24:00.264Z,57.20
2024-02-10T16:26:27.595Z,53.67
2024-02-10T16:28:56.870Z,55.20
2024-02-10T16:31:25.828Z,49.90
2024-02-10T16:33:54.618Z,65.50
2024-02-10T16:36:25.326Z,49.92
2024-02-10T16:38:52.735Z,63.80
2024-02-10T16:41:20.944Z,52.03
2024-02-10T16:43:47.943Z,60.05
2024-02-10T16:46:18.417Z,57.30
2024-02-10T16:48:49.389Z,51.65
2024-02-10T16:51:34.690Z,62.65
2024-02-10T16:54:06.979Z,50.65
2024-02-10T16:56:39.356Z,64.00
2024-02-10T16:59:06.415Z,67.18
2024-02-10T17:01:33.570Z,50.50
2024-02-10T17:04:05.076Z,53.67
2024-02-10T17:06:37.222Z,55.03
2024-02-10T17:09:05.854Z,54.22
2024-02-10T17:11:34.906Z,58.30
2024-02-10T17:14:02.296Z,50.70
2024-02-10T17:16:29.823Z,64.53
2024-02-10T17:18:57.775Z,67.83
2024-02-10T17:21:25.399Z,54.42
2024-02-10T17:23:52.965Z,61.80
2024-02-10T17:26:20.995Z,53.23
2024-02-10T17:28:48.064Z,58.53
2024-02-10T17:31:15.470Z,55.10
2024-02-10T17:33:43.188Z,55.72
2024-02-10T17:36:17.472Z,58.30
2024-02-10T17:38:44.651Z,57.38
2024-02-10T17:41:12.474Z,60.20
2024-02-10T17:43:40.191Z,54.08
2024-02-10T17:46:07.334Z,55.83
2024-02-10T17:48:35.560Z,56.60
2024-02-10T17:51:02.729Z,47.72
2024-02-10T17:53:30.780Z,49.03
2024-02-10T17:56:01.576Z,62.83
2024-02-10T17:58:32.631Z,63.67
2024-02-10T18:01:00.921Z,58.47
2024-02-10T18:03:32.657Z,50.97
2024-02-10T18:06:01.990Z,59.20
2024-02-10T18:08:30.766Z,56.40
2024-02-10T18:10:57.844Z,56.10
2024-02-10T18:13:25.459Z,60.37
2024-02-10T18:15:52.568Z,52.67
2024-02-10T18:18:20.404Z,59.03
2024-02-10T18:20:48.170Z,54.70
2024-02-10T18:23:15.315Z,49.03
2024-02-10T18:25:45.385Z,54.37
2024-02-10T18:28:14.899Z,55.25
2024-02-10T18:30:46.327Z,54.50
2024-02-10T18:33:16.049Z,57.77
2024-02-10T18:35:44.491Z,52.33
2024-02-10T18:38:13.162Z,50.13
2024-02-10T18:40:40.678Z,47.58
2024-02-10T18:43:07.696Z,45.97
2024-02-10T18:45:35.651Z,48.17
2024-02-10T18:48:03.542Z,48.37
2024-02-10T18:50:31.296Z,45.53
2024-02-10T18:52:58.757Z,51.67
2024-02-10T18:55:26.516Z,45.20
2024-02-10T18:57:53.647Z,46.72
2024-02-10T19:00:21.117Z,47.88
2024-02-10T19:02:49.485Z,46.78
2024-02-10T19:05:17.388Z,48.05
2024-02-10T19:07:45.620Z,43.28
2024-02-10T19:10:12.730Z,45.25
2024-02-10T19:12:39.927Z,38.58
2024-02-10T19:15:11.388Z,38.33
2024-02-10T19:17:39.073Z,45.80
2024-02-10T19:20:08.030Z,42.70
2024-02-10T19:22:36.866Z,42.08
2024-02-10T19:25:08.701Z,39.67
2024-02-10T19:27:36.484Z,48.45
2024-02-10T19:30:10.641Z,40.13
2024-02-10T19:32:39.748Z,43.03
2024-02-10T19:35:13.768Z,48.90
2024-02-10T19:37:47.093Z,42.10
2024-02-10T19:40:19.461Z,41.53
2024-02-10T19:42:47.761Z,42.95
2024-02-10T19:45:16.543Z,44.55
2024-02-10T19:47:47.681Z,43.83
2024-02-10T19:50:18.741Z,48.20
2024-02-10T19:52:49.205Z,43.72
2024-02-10T19:55:20.649Z,41.97
2024-02-10T19:57:47.909Z,46.00
2024-02-10T20:00:15.168Z,38.70
2024-02-10T20:02:45.481Z,41.63
2024-02-10T20:05:18.603Z,38.63
2024-02-10T20:07:45.823Z,37.17
2024-02-10T20:10:19.869Z,40.53
2024-02-10T20:12:47.633Z,38.95
2024-02-10T20:15:18.816Z,38.33
2024-02-10T20:17:52.540Z,39.30
2024-02-10T20:20:20.675Z,45.20
2024-02-10T20:22:49.415Z,34.92
2024-02-10T20:25:16.848Z,37.40
2024-02-10T20:27:46.287Z,36.33
2024-02-10T20:30:14.554Z,40.35
2024-02-10T20:32:41.525Z,39.25
2024-02-10T20:35:11.685Z,37.90
2024-02-10T20:37:40.198Z,38.95
2024-02-10T20:40:13.321Z,34.55
2024-02-10T20:42:41.117Z,39.67
2024-02-10T20:45:08.493Z,34.47
2024-02-10T20:47:38.519Z,33.08
2024-02-10T20:50:06.597Z,36.33
2024-02-10T20:52:34.120Z,31.17
2024-02-10T20:55:01.072Z,30.90
2024-02-10T20:57:30.349Z,29.50
2024-02-10T20:59:58.650Z,27.48
2024-02-10T21:02:28.419Z,33.63
2024-02-10T21:04:55.678Z,30.33
2024-02-10T21:07:24.842Z,26.57
2024-02-10T21:09:51.834Z,25.75
2024-02-10T21:12:18.754Z,27.70
2024-02-10T21:14:45.748Z,30.25
2024-02-10T21:17:12.724Z,32.83
2024-02-10T21:19:40.042Z,29.30
2024-02-10T21:22:07.354Z,23.45
2024-02-10T21:24:34.326Z,29.05
2024-02-10T21:27:01.319Z,27.77
2024-02-10T21:29:28.207Z,31.40
2024-02-10T21:31:55.231Z,32.58
2024-02-10T21:34:22.160Z,33.17
2024-02-10T21:36:50.486Z,30.37
2024-02-10T21:39:18.763Z,27.30
2024-02-10T21:41:48.174Z,29.13
2024-02-10T21:44:18.226Z,28.20
2024-02-10T21:46:45.185Z,27.50
2024-02-10T21:49:14.481Z,28.17
2024-02-10T21:51:53.888Z,25.57
2024-02-10T21:54:25.726Z,25.03
2024-02-10T21:56:54.420Z,26.50
2024-02-10T21:59:21.362Z,26.10
2024-02-10T22:01:50.839Z,26.93
2024-02-10T22:04:17.973Z,26.63
2024-02-10T22:06:44.937Z,27.40
2024-02-10T22:09:12.054Z,27.02
2024-02-10T22:11:39.105Z,35.72
2024-02-10T22:14:08.321Z,30.53
2024-02-10T22:16:35.462Z,28.87
2024-02-10T22:19:03.433Z,26.52
2024-02-10T22:21:30.679Z,26.30
2024-02-10T22:23:58.542Z,28.90
2024-02-10T22:26:30.425Z,27.73
2024-02-10T22:28:59.026Z,30.48
2024-02-10T22:31:31.503Z,28.33
2024-02-10T22:34:00.115Z,26.67
2024-02-10T22:36:28.227Z,29.87
2024-02-10T22:38:56.959Z,24.52
2024-02-10T22:41:24.729Z,33.25
2024-02-10T22:43:51.820Z,28.63
2024-02-10T22:46:18.718Z,32.93
2024-02-10T22:48:45.706Z,26.27
2024-02-10T22:51:16.884Z,27.57
2024-02-10T22:53:43.834Z,26.77
2024-02-10T22:56:12.604Z,21.70
2024-02-10T22:58:39.929Z,24.05
2024-02-10T23:01:07.176Z,20.98
2024-02-10T23:03:34.305Z,31.00
2024-02-10T23:06:02.476Z,21.80
2024-02-10T23:08:33.075Z,29.55
2024-02-10T23:11:01.456Z,20.27
2024-02-10T23:13:28.387Z,23.67
2024-02-10T23:15:56.232Z,22.03
2024-02-10T23:18:25.658Z,24.50
2024-02-10T23:20:53.124Z,23.92
2024-02-10T23:23:28.864Z,21.73
2024-02-10T23:25:57.260Z,19.45
2024-02-10T23:28:24.295Z,21.38
2024-02-10T23:30:53.071Z,21.50
2024-02-10T23:33:21.709Z,24.70
2024-02-10T23:35:49.052Z,18.60
2024-02-10T23:38:16.542Z,18.83
2024-02-10T23:40:47.276Z,17.98
2024-02-10T23:43:14.383Z,22.75
2024-02-10T23:45:42.667Z,22.45
2024-02-10T23:48:13.327Z,21.67
2024-02-10T23:50:40.433Z,20.60
2024-02-10T23:53:11.257Z,19.55
2024-02-10T23:55:39.344Z,19.20
2024-02-10T23:58:06.431Z,19.70
